createdAt,value
2022-10-10T00:01:37.044Z,9.05
2022-10-10T00:05:40.705Z,10.98
2022-10-10T00:09:44.451Z,9.35
2022-10-10T00:13:47.517Z,10.00
2022-10-10T00:17:50.577Z,10.63
2022-10-10T00:21:54.267Z,9.43
2022-10-10T00:25:57.030Z,8.25
2022-10-10T00:29:59.854Z,9.35
2022-10-10T00:34:02.642Z,8.75
2022-10-10T00:38:06.225Z,9.30
2022-10-10T00:42:13.207Z,8.10
2022-10-10T00:46:16.446Z,8.20
2022-10-10T00:50:22.053Z,7.72
2022-10-10T00:54:26.081Z,7.47
2022-10-10T00:58:31.464Z,8.85
2022-10-10T01:02:34.471Z,11.45
2022-10-10T01:06:37.261Z,8.23
2022-10-10T01:11:10.892Z,8.40
2022-10-10T01:15:42.582Z,7.20
2022-10-10T01:19:48.432Z,8.60
2022-10-10T01:24:10.354Z,9.60
2022-10-10T01:28:40.741Z,9.95
2022-10-10T01:32:47.722Z,9.50
2022-10-10T01:37:22.147Z,10.13
2022-10-10T01:41:27.705Z,10.73
2022-10-10T01:45:33.733Z,9.90
2022-10-10T01:49:43.146Z,11.65
2022-10-10T01:53:52.039Z,10.13
2022-10-10T01:58:17.656Z,8.52
2022-10-10T02:02:42.460Z,8.90
2022-10-10T02:06:55.349Z,11.20
2022-10-10T02:11:16.438Z,9.20
2022-10-10T02:15:23.900Z,11.57
2022-10-10T02:19:28.745Z,8.10
2022-10-10T02:23:33.862Z,8.23
2022-10-10T02:27:48.631Z,9.57
2022-10-10T02:32:00.079Z,8.68
2022-10-10T02:36:04.647Z,9.98
2022-10-10T02:40:10.472Z,9.07
2022-10-10T02:44:14.839Z,8.80
2022-10-10T02:48:17.568Z,12.88
2022-10-10T02:52:20.636Z,10.43
2022-10-10T02:56:23.427Z,11.07
2022-10-10T03:00:26.790Z,10.15
2022-10-10T03:04:29.722Z,10.25
2022-10-10T03:08:32.803Z,11.95
2022-10-10T03:12:36.109Z,8.77
2022-10-10T03:16:38.982Z,10.23
2022-10-10T03:20:42.063Z,11.40
2022-10-10T03:24:45.490Z,10.05
2022-10-10T03:28:48.444Z,9.85
2022-10-10T03:32:51.456Z,11.23
2022-10-10T03:36:55.320Z,10.85
2022-10-10T03:40:58.137Z,13.50
2022-10-10T03:45:01.705Z,11.25
2022-10-10T03:49:04.550Z,11.35
2022-10-10T03:53:08.200Z,14.27
2022-10-10T03:57:11.049Z,17.65
2022-10-10T04:01:14.075Z,14.82
2022-10-10T04:05:17.310Z,15.50
2022-10-10T04:09:20.038Z,13.90
2022-10-10T04:13:25.978Z,14.15
2022-10-10T04:17:28.927Z,15.00
2022-10-10T04:21:31.692Z,13.85
2022-10-10T04:25:34.507Z,13.13
2022-10-10T04:29:37.619Z,14.93
2022-10-10T04:33:40.342Z,13.13
2022-10-10T04:37:43.146Z,11.60
2022-10-10T04:41:50.086Z,16.73
2022-10-10T04:45:52.899Z,15.23
2022-10-10T04:49:55.855Z,14.02
2022-10-10T04:53:59.251Z,13.10
2022-10-10T04:58:02.374Z,12.05
2022-10-10T05:02:06.870Z,15.00
2022-10-10T05:06:09.903Z,13.63
2022-10-10T05:10:12.830Z,11.05
2022-10-10T05:14:15.591Z,14.30
2022-10-10T05:18:27.584Z,14.43
2022-10-10T05:22:30.868Z,13.52
2022-10-10T05:26:33.782Z,15.63
2022-10-10T05:30:36.838Z,17.85
2022-10-10T05:34:39.610Z,14.82
2022-10-10T05:38:42.858Z,23.77
2022-10-10T05:42:46.077Z,15.55
2022-10-10T05:46:48.813Z,14.10
2022-10-10T05:50:55.133Z,15.43
2022-10-10T05:54:59.494Z,11.18
2022-10-10T05:59:02.426Z,13.32
2022-10-10T06:03:06.962Z,14.65
2022-10-10T06:07:09.897Z,15.25
2022-10-10T06:11:12.912Z,13.85
2022-10-10T06:15:15.744Z,15.45
2022-10-10T06:19:18.426Z,16.48
2022-10-10T06:23:21.713Z,13.75
2022-10-10T06:27:24.557Z,16.90
2022-10-10T06:31:27.909Z,18.55
2022-10-10T06:35:30.672Z,17.13
2022-10-10T06:39:34.518Z,18.23
2022-10-10T06:43:41.390Z,17.83
2022-10-10T06:47:44.190Z,18.73
2022-10-10T06:51:47.680Z,16.40
2022-10-10T06:55:50.340Z,14.82
2022-10-10T06:59:53.103Z,14.95
2022-10-10T07:03:56.164Z,13.25
2022-10-10T07:08:00.175Z,16.15
2022-10-10T07:12:03.207Z,16.83
2022-10-10T07:16:06.338Z,15.60
2022-10-10T07:20:09.614Z,16.45
2022-10-10T07:24:12.392Z,21.08
2022-10-10T07:28:15.488Z,17.85
2022-10-10T07:32:18.353Z,18.10
2022-10-10T07:36:21.114Z,16.23
2022-10-10T07:40:24.967Z,15.45
2022-10-10T07:44:50.829Z,17.25
2022-10-10T07:48:53.881Z,20.63
2022-10-10T07:52:57.821Z,16.70
2022-10-10T07:57:02.606Z,18.75
2022-10-10T08:01:08.089Z,15.10
2022-10-10T08:05:12.503Z,17.35
2022-10-10T08:09:17.195Z,13.77
2022-10-10T08:13:20.174Z,14.85
2022-10-10T08:17:22.837Z,14.32
2022-10-10T08:21:25.576Z,13.65
2022-10-10T08:25:28.309Z,13.95
2022-10-10T08:29:35.396Z,12.10
2022-10-10T08:33:41.311Z,11.02
2022-10-10T08:37:44.446Z,10.63
2022-10-10T08:41:55.320Z,12.05
2022-10-10T08:46:00.906Z,10.10
2022-10-10T08:54:32.029Z,11.05
2022-10-10T08:58:45.614Z,10.30
2022-10-10T09:02:54.052Z,9.60
2022-10-10T09:07:24.814Z,11.57
2022-10-10T09:11:46.020Z,11.40
2022-10-10T09:15:57.641Z,11.00
2022-10-10T09:20:19.286Z,11.90
2022-10-10T09:24:41.200Z,11.95
2022-10-10T09:28:56.092Z,12.68
2022-10-10T09:33:07.454Z,12.07
2022-10-10T09:37:42.643Z,11.35
2022-10-10T09:41:56.770Z,11.38
2022-10-10T09:46:00.373Z,10.30
2022-10-10T09:54:14.200Z,10.38
2022-10-10T09:58:37.425Z,10.30
2022-10-10T10:02:41.366Z,10.68
2022-10-10T10:06:50.333Z,11.40
2022-10-10T10:10:58.018Z,10.45
2022-10-10T10:15:04.874Z,10.25
2022-10-10T10:19:34.626Z,10.40
2022-10-10T10:23:44.379Z,9.25
2022-10-10T10:27:47.076Z,9.85
2022-10-10T10:32:00.512Z,9.43
2022-10-10T10:36:18.699Z,9.05
2022-10-10T10:40:55.948Z,9.80
2022-10-10T10:45:37.963Z,14.48
2022-10-10T10:49:54.254Z,16.00
2022-10-10T10:54:31.155Z,9.80
2022-10-10T10:59:17.027Z,9.63
2022-10-10T11:05:21.273Z,9.45
2022-10-10T11:08:03.424Z,10.13
2022-10-10T11:12:15.845Z,10.13
2022-10-10T11:21:05.481Z,13.52
2022-10-10T11:25:30.866Z,10.95
2022-10-10T11:30:07.011Z,10.00
2022-10-10T11:38:28.976Z,12.07
2022-10-10T11:42:53.906Z,11.02
2022-10-10T11:47:16.730Z,13.82
2022-10-10T11:51:30.996Z,10.57
2022-10-10T11:56:09.064Z,10.90
2022-10-10T12:00:17.146Z,12.23
2022-10-10T12:04:20.204Z,12.40
2022-10-10T12:08:40.434Z,10.93
2022-10-10T12:12:47.415Z,10.20
2022-10-10T12:16:50.314Z,10.85
2022-10-10T12:21:18.317Z,10.70
2022-10-10T12:25:25.392Z,10.57
2022-10-10T12:29:56.149Z,11.32
2022-10-10T12:34:02.380Z,11.52
2022-10-10T12:38:05.843Z,10.52
2022-10-10T12:42:30.445Z,10.65
2022-10-10T12:46:34.633Z,10.23
2022-10-10T12:50:40.521Z,10.48
2022-10-10T12:54:45.732Z,11.88
2022-10-10T12:58:49.873Z,15.70
2022-10-10T13:02:59.245Z,10.85
2022-10-10T13:07:04.773Z,11.85
2022-10-10T13:11:13.460Z,12.02
2022-10-10T13:15:22.511Z,11.23
2022-10-10T13:19:25.694Z,10.68
2022-10-10T13:23:28.769Z,12.05
2022-10-10T13:27:35.309Z,9.93
2022-10-10T13:31:38.809Z,12.40
2022-10-10T13:35:43.886Z,11.73
2022-10-10T13:39:48.816Z,11.43
2022-10-10T13:43:52.128Z,9.90
2022-10-10T13:48:00.942Z,10.88
2022-10-10T13:52:07.125Z,15.40
2022-10-10T13:56:15.321Z,13.82
2022-10-10T14:00:21.225Z,10.95
2022-10-10T14:04:38.317Z,11.43
2022-10-10T14:08:41.288Z,12.10
2022-10-10T14:12:56.997Z,11.85
2022-10-10T14:17:01.877Z,12.73
2022-10-10T14:21:05.496Z,10.68
2022-10-10T14:25:10.640Z,10.45
2022-10-10T14:29:17.718Z,11.35
2022-10-10T14:33:21.206Z,11.30
2022-10-10T14:37:26.906Z,9.77
2022-10-10T14:41:29.578Z,13.30
2022-10-10T14:45:32.576Z,11.57
2022-10-10T14:49:35.614Z,10.60
2022-10-10T14:53:39.527Z,11.35
2022-10-10T14:57:45.130Z,11.48
2022-10-10T15:01:56.663Z,11.30
2022-10-10T15:05:59.656Z,13.13
2022-10-10T15:14:26.198Z,12.88
2022-10-10T15:18:53.211Z,12.00
2022-10-10T15:22:51.849Z,14.10
2022-10-10T15:26:55.926Z,9.50
2022-10-10T15:30:59.693Z,12.40
2022-10-10T15:35:02.694Z,10.30
2022-10-10T15:39:05.895Z,9.50
2022-10-10T15:43:09.703Z,9.27
2022-10-10T15:47:18.235Z,12.85
2022-10-10T15:51:21.245Z,16.02
2022-10-10T15:55:23.979Z,10.10
2022-10-10T15:59:30.846Z,16.27
2022-10-10T16:03:36.533Z,15.88
2022-10-10T16:07:47.913Z,28.25
2022-10-10T16:11:51.453Z,11.75
2022-10-10T16:15:59.359Z,15.15
2022-10-10T16:20:08.663Z,11.45
2022-10-10T16:24:13.309Z,12.00
2022-10-10T16:28:16.357Z,8.32
2022-10-10T16:32:19.161Z,9.35
2022-10-10T16:36:28.616Z,9.07
2022-10-10T16:40:34.504Z,10.88
2022-10-10T16:44:51.534Z,10.43
2022-10-10T16:49:14.172Z,9.88
2022-10-10T16:53:24.107Z,10.05
2022-10-10T16:57:29.269Z,9.60
2022-10-10T17:01:34.131Z,10.43
2022-10-10T17:05:40.251Z,10.02
2022-10-10T17:09:47.699Z,10.95
2022-10-10T17:13:51.354Z,9.88
2022-10-10T17:17:54.278Z,11.65
2022-10-10T17:21:58.140Z,10.55
2022-10-10T17:26:01.957Z,11.25
2022-10-10T17:30:06.769Z,10.00
2022-10-10T17:34:14.277Z,10.80
2022-10-10T17:38:39.193Z,9.75
2022-10-10T17:42:43.487Z,11.48
2022-10-10T17:46:46.279Z,10.07
2022-10-10T17:50:49.135Z,9.65
2022-10-10T17:54:52.295Z,11.27
2022-10-10T17:58:56.343Z,9.27
2022-10-10T18:03:04.427Z,9.38
2022-10-10T18:07:10.804Z,9.40
2022-10-10T18:11:15.264Z,11.57
2022-10-10T18:15:18.200Z,10.13
2022-10-10T18:19:20.997Z,10.45
2022-10-10T18:23:23.888Z,10.07
2022-10-10T18:27:27.567Z,12.90
2022-10-10T18:31:33.974Z,10.95
2022-10-10T18:35:41.381Z,12.13
2022-10-10T18:39:44.160Z,13.15
2022-10-10T18:43:48.538Z,11.85
2022-10-10T18:47:51.829Z,10.27
2022-10-10T18:51:54.830Z,14.40
2022-10-10T18:56:00.349Z,11.88
2022-10-10T19:00:03.482Z,14.90
2022-10-10T19:04:09.025Z,12.48
2022-10-10T19:08:12.251Z,15.95
2022-10-10T19:12:15.619Z,19.08
2022-10-10T19:16:19.473Z,17.45
2022-10-10T19:20:27.073Z,17.38
2022-10-10T19:24:32.590Z,16.15
2022-10-10T19:28:36.445Z,15.32
2022-10-10T19:32:39.406Z,17.02
2022-10-10T19:36:42.448Z,16.45
2022-10-10T19:40:46.999Z,17.30
2022-10-10T19:44:49.870Z,15.05
2022-10-10T19:49:00.548Z,16.27
2022-10-10T19:53:05.153Z,20.10
2022-10-10T19:57:09.109Z,15.88
2022-10-10T20:01:14.756Z,18.58
2022-10-10T20:05:17.957Z,15.77
2022-10-10T20:09:20.952Z,16.73
2022-10-10T20:13:24.325Z,15.35
2022-10-10T20:17:28.645Z,16.17
2022-10-10T20:21:33.712Z,15.57
2022-10-10T20:25:41.655Z,15.88
2022-10-10T20:29:44.594Z,14.20
2022-10-10T20:33:49.093Z,14.77
2022-10-10T20:37:52.899Z,14.65
2022-10-10T20:41:55.644Z,14.80
2022-10-10T20:46:04.139Z,15.52
2022-10-10T20:50:07.549Z,16.05
2022-10-10T20:54:10.995Z,18.30
2022-10-10T20:58:13.732Z,16.38
2022-10-10T21:02:19.418Z,16.52
2022-10-10T21:06:26.463Z,19.13
2022-10-10T21:14:32.834Z,17.55
2022-10-10T21:18:36.029Z,16.55
2022-10-10T21:22:38.783Z,15.30
2022-10-10T21:26:42.479Z,17.45
2022-10-10T21:30:49.417Z,14.98
2022-10-10T21:34:56.313Z,15.75
2022-10-10T21:39:01.023Z,18.20
2022-10-10T21:43:03.769Z,16.05
2022-10-10T21:47:06.527Z,17.23
2022-10-10T21:51:10.089Z,17.75
2022-10-10T21:55:12.834Z,16.05
2022-10-10T21:59:15.589Z,15.27
2022-10-10T22:03:18.414Z,17.98
2022-10-10T22:07:21.256Z,16.25
2022-10-10T22:11:26.679Z,15.65
2022-10-10T22:15:29.858Z,17.75
2022-10-10T22:19:32.776Z,17.75
2022-10-10T22:23:36.090Z,15.00
2022-10-10T22:27:39.624Z,18.15
2022-10-10T22:31:42.397Z,16.48
2022-10-10T22:35:46.296Z,14.23
2022-10-10T22:39:49.097Z,16.73
2022-10-10T22:43:51.859Z,17.00
2022-10-10T22:47:54.994Z,14.75
2022-10-10T22:51:58.107Z,14.80
2022-10-10T22:56:01.933Z,13.32
2022-10-10T23:00:06.565Z,17.00
2022-10-10T23:04:10.521Z,13.43
2022-10-10T23:08:13.641Z,14.20
2022-10-10T23:12:16.515Z,11.88
2022-10-10T23:16:19.300Z,12.40
2022-10-10T23:20:22.104Z,13.10
2022-10-10T23:24:25.337Z,13.23
2022-10-10T23:28:28.296Z,11.00
2022-10-10T23:32:31.183Z,12.50
2022-10-10T23:36:34.171Z,13.73
2022-10-10T23:40:36.934Z,11.90
2022-10-10T23:44:39.664Z,14.23
2022-10-10T23:48:43.866Z,13.90
2022-10-10T23:52:57.704Z,12.25
2022-10-10T23:57:10.717Z,15.77
